Risingsun, Ohio
Current Conditions -  °F | °C
As of 3:53 AM on Monday 20 Oct 2014 (Local Time) from KTDZ Reporting Station
Overcast Overcast  
Wind Chill: 45°   Ceiling: 11000
Heat Index: 49°   Visibility: 10mi
Dew Point: 39°   Wind: 10mph
Humidity: 69%   Direction: 210°SSW
Pressure: 29.96"   Gusts: NA
Location:  41.27°N, 83.42°W
Report Text: KTDZ 200753Z AUTO 21009KT 10SM OVC110 09/04 A2996 RMK AO2 SLP145 T00940039 TSNO
Loading
Personal Weather Stations






























Interactive Weather Map
Tropical Storm Tracking
New forecast layout! Learn more

10-Day Weather Forecast

Advertisements
Track Severe Weather on mobile